createdAt,value
2022-09-17T00:01:29.776Z,10.22
2022-09-17T00:04:00.548Z,10.17
2022-09-17T00:06:27.945Z,10.29
2022-09-17T00:08:56.430Z,10.25
2022-09-17T00:11:26.993Z,10.24
2022-09-17T00:13:55.185Z,10.30
2022-09-17T00:16:28.774Z,10.15
2022-09-17T00:18:56.792Z,10.12
2022-09-17T00:21:26.090Z,10.22
2022-09-17T00:24:03.256Z,10.07
2022-09-17T00:26:31.441Z,10.11
2022-09-17T00:28:59.405Z,10.15
2022-09-17T00:31:28.649Z,10.03
2022-09-17T00:33:55.683Z,10.11
2022-09-17T00:36:23.477Z,10.12
2022-09-17T00:38:55.044Z,9.99
2022-09-17T00:41:23.698Z,10.10
2022-09-17T00:43:59.028Z,10.04
2022-09-17T00:46:35.468Z,10.09
2022-09-17T00:49:16.601Z,10.15
2022-09-17T00:52:00.170Z,10.08
2022-09-17T00:54:30.148Z,10.20
2022-09-17T00:57:00.246Z,10.12
2022-09-17T00:59:29.739Z,10.25
2022-09-17T01:01:57.054Z,10.28
2022-09-17T01:04:26.437Z,10.21
2022-09-17T01:07:20.241Z,10.36
2022-09-17T01:10:17.323Z,10.25
2022-09-17T01:13:18.122Z,10.27
2022-09-17T01:16:10.408Z,10.16
2022-09-17T01:19:05.733Z,10.17
2022-09-17T01:21:51.178Z,10.17
2022-09-17T01:25:02.402Z,10.07
2022-09-17T01:27:31.881Z,10.23
2022-09-17T01:30:25.889Z,10.15
2022-09-17T01:33:03.039Z,10.23
2022-09-17T01:35:49.336Z,10.25
2022-09-17T01:38:31.818Z,10.37
2022-09-17T01:41:16.043Z,10.39
2022-09-17T01:43:55.329Z,10.33
2022-09-17T01:46:30.996Z,10.49
2022-09-17T01:49:02.557Z,10.43
2022-09-17T01:51:36.617Z,10.48
2022-09-17T01:54:10.217Z,10.54
2022-09-17T01:56:44.941Z,10.49
2022-09-17T01:59:25.369Z,10.57
2022-09-17T02:01:58.259Z,10.51
2022-09-17T02:04:33.430Z,10.55
2022-09-17T02:07:08.896Z,10.59
2022-09-17T02:09:52.324Z,10.53
2022-09-17T02:12:26.165Z,10.60
2022-09-17T02:14:57.281Z,10.55
2022-09-17T02:17:44.191Z,10.64
2022-09-17T02:20:12.310Z,10.62
2022-09-17T02:22:56.875Z,10.63
2022-09-17T02:25:33.114Z,10.73
2022-09-17T02:28:08.760Z,10.60
2022-09-17T02:30:39.150Z,10.72
2022-09-17T02:33:13.973Z,10.64
2022-09-17T02:35:41.382Z,10.69
2022-09-17T02:38:08.561Z,10.72
2022-09-17T02:40:54.676Z,10.54
2022-09-17T02:43:39.182Z,10.63
2022-09-17T02:46:23.422Z,10.58
2022-09-17T02:49:22.405Z,10.64
2022-09-17T02:52:32.726Z,10.58
2022-09-17T02:55:20.669Z,10.57
2022-09-17T02:58:22.376Z,10.53
2022-09-17T03:00:49.488Z,10.52
2022-09-17T03:03:31.889Z,10.56
2022-09-17T03:06:00.520Z,10.53
2022-09-17T03:08:35.314Z,10.60
2022-09-17T03:11:03.643Z,10.44
2022-09-17T03:13:31.206Z,10.46
2022-09-17T03:15:58.620Z,10.48
2022-09-17T03:18:25.627Z,10.47
2022-09-17T03:20:53.060Z,10.54
2022-09-17T03:23:20.274Z,10.44
2022-09-17T03:25:52.121Z,10.49
2022-09-17T03:28:19.177Z,10.41
2022-09-17T03:30:49.233Z,10.40
2022-09-17T03:33:18.853Z,10.48
2022-09-17T03:35:46.296Z,10.33
2022-09-17T03:38:15.843Z,10.44
2022-09-17T03:40:43.277Z,10.34
2022-09-17T03:43:10.381Z,10.33
2022-09-17T03:45:37.429Z,10.35
2022-09-17T03:48:04.059Z,10.34
2022-09-17T03:50:31.324Z,10.41
2022-09-17T03:52:57.953Z,10.35
2022-09-17T03:55:24.590Z,10.40
2022-09-17T03:57:51.573Z,10.42
2022-09-17T04:00:20.634Z,10.37
2022-09-17T04:02:47.761Z,10.47
2022-09-17T04:05:14.661Z,10.36
2022-09-17T04:07:42.728Z,10.45
2022-09-17T04:10:09.592Z,10.44
2022-09-17T04:12:36.880Z,10.43
2022-09-17T04:15:04.490Z,10.50
2022-09-17T04:17:31.379Z,10.39
2022-09-17T04:19:58.604Z,10.49
2022-09-17T04:22:26.263Z,10.43
2022-09-17T04:24:52.895Z,10.43
2022-09-17T04:27:19.551Z,10.46
2022-09-17T04:29:46.165Z,10.42
2022-09-17T04:32:14.858Z,10.50
2022-09-17T04:34:41.563Z,10.48
2022-09-17T04:37:08.305Z,10.50
2022-09-17T04:39:35.631Z,10.54
2022-09-17T04:42:02.246Z,10.43
2022-09-17T04:44:28.860Z,10.55
2022-09-17T04:46:55.671Z,10.48
2022-09-17T04:49:22.385Z,10.52
2022-09-17T04:51:48.995Z,10.53
2022-09-17T04:54:15.743Z,10.48
2022-09-17T04:56:42.345Z,10.56
2022-09-17T04:59:11.592Z,10.51
2022-09-17T05:01:38.245Z,10.56
2022-09-17T05:04:04.920Z,10.53
2022-09-17T05:06:31.526Z,10.51
2022-09-17T05:08:59.091Z,10.56
2022-09-17T05:11:26.093Z,10.48
2022-09-17T05:13:52.699Z,10.55
2022-09-17T05:16:19.879Z,10.56
2022-09-17T05:18:46.978Z,10.53
2022-09-17T05:21:14.405Z,10.60
2022-09-17T05:23:41.104Z,10.55
2022-09-17T05:26:07.665Z,10.62
2022-09-17T05:28:34.325Z,10.60
2022-09-17T05:31:01.917Z,10.58
2022-09-17T05:33:29.202Z,10.62
2022-09-17T05:35:57.976Z,10.49
2022-09-17T05:38:26.836Z,10.60
2022-09-17T05:40:53.541Z,10.46
2022-09-17T05:43:20.219Z,10.51
2022-09-17T05:45:46.866Z,10.49
2022-09-17T05:48:15.446Z,10.39
2022-09-17T05:50:42.438Z,10.55
2022-09-17T05:53:12.328Z,10.46
2022-09-17T05:55:39.676Z,10.50
2022-09-17T05:58:25.024Z,10.44
2022-09-17T06:00:51.872Z,10.46
2022-09-17T06:03:22.606Z,10.50
2022-09-17T06:06:01.264Z,10.39
2022-09-17T06:08:32.273Z,10.51
2022-09-17T06:11:04.901Z,10.46
2022-09-17T06:13:31.757Z,10.52
2022-09-17T06:15:58.497Z,10.56
2022-09-17T06:18:25.225Z,10.57
2022-09-17T06:20:56.489Z,10.68
2022-09-17T06:23:24.285Z,10.67
2022-09-17T06:25:57.030Z,10.80
2022-09-17T06:28:24.699Z,10.86
2022-09-17T06:30:54.595Z,10.88
2022-09-17T06:33:21.992Z,10.97
2022-09-17T06:35:50.924Z,10.95
2022-09-17T06:38:17.639Z,11.11
2022-09-17T06:40:47.136Z,11.06
2022-09-17T06:43:15.540Z,11.14
2022-09-17T06:45:43.536Z,11.25
2022-09-17T06:48:10.457Z,11.30
2022-09-17T06:50:40.672Z,11.48
2022-09-17T06:53:10.392Z,11.50
2022-09-17T06:55:40.655Z,11.69
2022-09-17T06:58:07.536Z,11.81
2022-09-17T07:00:34.600Z,11.86
2022-09-17T07:03:01.748Z,11.94
2022-09-17T07:05:30.045Z,11.88
2022-09-17T07:07:57.686Z,11.96
2022-09-17T07:10:25.480Z,11.90
2022-09-17T07:12:52.437Z,11.92
2022-09-17T07:15:19.678Z,12.04
2022-09-17T07:17:47.046Z,11.95
2022-09-17T07:20:14.389Z,12.04
2022-09-17T07:22:43.729Z,12.01
2022-09-17T07:25:11.057Z,12.03
2022-09-17T07:27:38.016Z,12.03
2022-09-17T07:30:08.762Z,12.03
2022-09-17T07:32:35.679Z,12.16
2022-09-17T07:35:04.060Z,12.02
2022-09-17T07:37:30.978Z,12.10
2022-09-17T07:39:57.961Z,12.15
2022-09-17T07:42:24.937Z,12.12
2022-09-17T07:44:51.842Z,12.20
2022-09-17T07:47:18.873Z,12.01
2022-09-17T07:49:46.074Z,12.09
2022-09-17T07:52:13.154Z,12.10
2022-09-17T07:54:40.068Z,12.05
2022-09-17T07:57:07.156Z,12.18
2022-09-17T07:59:36.293Z,12.07
2022-09-17T08:02:03.421Z,12.19
2022-09-17T08:04:30.530Z,12.10
2022-09-17T08:06:57.525Z,12.16
2022-09-17T08:09:25.200Z,12.27
2022-09-17T08:11:56.832Z,12.16
2022-09-17T08:14:29.194Z,12.28
2022-09-17T08:16:56.803Z,12.18
2022-09-17T08:19:24.110Z,12.28
2022-09-17T08:21:51.397Z,12.31
2022-09-17T08:24:20.876Z,12.23
2022-09-17T08:26:47.778Z,12.38
2022-09-17T08:29:15.002Z,12.37
2022-09-17T08:31:42.138Z,12.47
2022-09-17T08:34:10.104Z,12.54
2022-09-17T08:36:37.658Z,12.54
2022-09-17T08:39:05.064Z,12.68
2022-09-17T08:41:34.962Z,12.63
2022-09-17T08:44:07.596Z,12.75
2022-09-17T08:46:43.625Z,12.62
2022-09-17T08:49:25.281Z,12.66
2022-09-17T08:51:53.421Z,12.76
2022-09-17T08:55:03.472Z,12.78
2022-09-17T08:57:57.352Z,12.88
2022-09-17T09:00:25.255Z,12.77
2022-09-17T09:03:11.783Z,12.89
2022-09-17T09:05:54.779Z,12.81
2022-09-17T09:08:37.364Z,13.01
2022-09-17T09:11:17.220Z,12.97
2022-09-17T09:14:14.229Z,13.11
2022-09-17T09:16:45.264Z,12.97
2022-09-17T09:19:28.530Z,12.99
2022-09-17T09:22:05.241Z,13.04
2022-09-17T09:24:52.210Z,13.05
2022-09-17T09:27:24.033Z,13.09
2022-09-17T09:30:01.986Z,13.10
2022-09-17T09:32:36.609Z,13.09
2022-09-17T09:35:14.593Z,13.02
2022-09-17T09:37:52.604Z,13.01
2022-09-17T09:40:31.385Z,13.05
2022-09-17T09:43:03.316Z,13.10
2022-09-17T09:45:45.025Z,13.17
2022-09-17T09:48:33.632Z,13.17
2022-09-17T09:51:10.224Z,13.24
2022-09-17T09:53:46.457Z,13.28
2022-09-17T09:56:25.406Z,13.26
2022-09-17T09:58:52.161Z,13.27
2022-09-17T10:01:23.571Z,13.28
2022-09-17T10:04:11.436Z,13.23
2022-09-17T10:09:35.463Z,13.17
2022-09-17T10:32:48.937Z,13.22
2022-09-17T10:48:52.374Z,13.56
2022-09-17T10:55:27.491Z,13.51
2022-09-17T10:58:11.374Z,13.46
2022-09-17T11:14:14.144Z,13.76
2022-09-17T11:30:28.136Z,14.12
2022-09-17T12:07:28.658Z,13.53
2022-09-17T12:10:41.585Z,13.57
2022-09-17T12:13:50.457Z,13.63
2022-09-17T12:16:43.857Z,13.63
2022-09-17T12:19:39.948Z,13.65
2022-09-17T12:22:13.001Z,13.73
2022-09-17T12:24:43.209Z,13.70
2022-09-17T12:28:12.456Z,13.83
2022-09-17T12:30:50.178Z,13.73
2022-09-17T12:40:13.721Z,14.05
2022-09-17T12:45:50.724Z,14.20
2022-09-17T12:48:42.057Z,14.04
2022-09-17T12:51:23.885Z,14.28
2022-09-17T13:07:05.662Z,14.45
2022-09-17T13:10:13.726Z,14.43
2022-09-17T13:12:54.221Z,14.58
2022-09-17T13:15:40.471Z,14.52
2022-09-17T13:21:09.035Z,14.84
2022-09-17T13:23:51.464Z,14.83
2022-09-17T13:26:34.297Z,14.98
2022-09-17T13:29:01.921Z,15.11
2022-09-17T13:31:39.276Z,15.10
2022-09-17T13:34:22.258Z,15.21
2022-09-17T13:36:58.152Z,15.25
2022-09-17T13:40:01.968Z,15.18
2022-09-17T13:42:31.383Z,15.24
2022-09-17T13:45:16.787Z,15.31
2022-09-17T13:47:56.222Z,15.30
2022-09-17T13:50:43.959Z,15.35
2022-09-17T13:53:16.575Z,15.41
2022-09-17T13:56:01.180Z,15.25
2022-09-17T13:58:34.538Z,15.20
2022-09-17T14:01:06.138Z,15.29
2022-09-17T14:03:38.512Z,15.24
2022-09-17T14:06:05.256Z,15.31
2022-09-17T14:08:43.864Z,15.58
2022-09-17T14:11:22.325Z,15.78
2022-09-17T14:13:55.866Z,15.62
2022-09-17T14:16:29.154Z,15.61
2022-09-17T14:18:59.698Z,15.58
2022-09-17T14:21:35.494Z,15.38
2022-09-17T14:24:14.346Z,15.32
2022-09-17T14:26:57.791Z,15.34
2022-09-17T14:29:55.813Z,15.11
2022-09-17T14:32:36.393Z,14.95
2022-09-17T14:35:19.197Z,14.96
2022-09-17T14:37:53.074Z,14.83
2022-09-17T14:40:21.499Z,14.80
2022-09-17T14:42:57.897Z,14.75
2022-09-17T14:45:29.829Z,14.61
2022-09-17T14:48:34.835Z,14.82
2022-09-17T14:51:20.037Z,14.80
2022-09-17T14:53:49.085Z,14.80
2022-09-17T14:56:19.872Z,15.10
2022-09-17T14:58:53.845Z,15.22
2022-09-17T15:01:26.491Z,15.13
2022-09-17T15:04:15.062Z,15.13
2022-09-17T15:06:43.709Z,15.09
2022-09-17T15:09:18.500Z,14.68
2022-09-17T15:11:50.231Z,14.61
2022-09-17T15:14:21.321Z,14.56
2022-09-17T15:16:50.716Z,14.34
2022-09-17T15:19:29.014Z,14.28
2022-09-17T15:21:57.409Z,14.18
2022-09-17T15:24:48.176Z,13.99
2022-09-17T15:27:28.342Z,14.08
2022-09-17T15:30:16.037Z,13.80
2022-09-17T15:32:49.124Z,13.74
2022-09-17T15:35:15.831Z,13.76
2022-09-17T15:38:11.541Z,13.62
2022-09-17T15:40:41.899Z,13.79
2022-09-17T15:43:27.937Z,13.68
2022-09-17T15:45:55.337Z,13.53
2022-09-17T15:48:27.828Z,13.63
2022-09-17T15:50:57.221Z,13.39
2022-09-17T15:53:26.710Z,13.37
2022-09-17T15:56:31.283Z,13.25
2022-09-17T15:59:03.411Z,12.93
2022-09-17T16:01:30.088Z,13.07
2022-09-17T16:04:01.936Z,12.85
2022-09-17T16:06:28.608Z,12.69
2022-09-17T16:08:57.657Z,12.85
2022-09-17T16:11:26.668Z,12.56
2022-09-17T16:13:55.651Z,12.55
2022-09-17T16:16:36.927Z,12.58
2022-09-17T16:19:06.730Z,12.31
2022-09-17T16:21:34.094Z,12.56
2022-09-17T16:24:00.872Z,12.53
2022-09-17T16:26:32.506Z,12.63
2022-09-17T16:29:11.045Z,12.75
2022-09-17T16:31:37.885Z,12.41
2022-09-17T16:34:04.922Z,12.50
2022-09-17T16:36:32.332Z,12.45
2022-09-17T16:38:59.631Z,12.29
2022-09-17T16:41:26.606Z,12.50
2022-09-17T16:43:53.480Z,12.26
2022-09-17T16:46:20.195Z,12.30
2022-09-17T16:48:50.076Z,12.34
2022-09-17T16:51:17.009Z,12.10
2022-09-17T16:53:43.656Z,12.27
2022-09-17T16:56:11.903Z,12.04
2022-09-17T16:58:38.752Z,12.01
2022-09-17T17:01:09.347Z,11.99
2022-09-17T17:03:36.048Z,11.69
2022-09-17T17:06:03.947Z,11.86
2022-09-17T17:08:34.107Z,11.46
2022-09-17T17:11:01.094Z,11.43
2022-09-17T17:13:30.336Z,11.31
2022-09-17T17:15:57.108Z,11.08
2022-09-17T17:18:24.774Z,11.24
2022-09-17T17:20:52.436Z,10.91
2022-09-17T17:23:19.688Z,11.08
2022-09-17T17:25:46.902Z,11.12
2022-09-17T17:28:15.457Z,11.12
2022-09-17T17:30:42.072Z,11.24
2022-09-17T17:33:08.740Z,11.05
2022-09-17T17:35:39.120Z,11.19
2022-09-17T17:38:08.149Z,10.91
2022-09-17T17:40:35.266Z,10.76
2022-09-17T17:43:04.214Z,10.73
2022-09-17T17:45:33.228Z,10.48
2022-09-17T17:48:01.968Z,10.59
2022-09-17T17:50:28.608Z,10.34
2022-09-17T17:52:55.621Z,10.28
2022-09-17T17:55:22.436Z,10.26
2022-09-17T17:58:00.223Z,10.18
2022-09-17T18:00:27.916Z,10.39
2022-09-17T18:02:54.608Z,10.37
2022-09-17T18:05:22.288Z,10.49
2022-09-17T18:07:49.840Z,10.57
2022-09-17T18:10:17.082Z,10.52
2022-09-17T18:12:50.725Z,10.74
2022-09-17T18:15:17.528Z,10.82
2022-09-17T18:17:44.210Z,11.01
2022-09-17T18:20:11.245Z,11.02
2022-09-17T18:22:38.652Z,11.09
2022-09-17T18:25:05.839Z,11.19
2022-09-17T18:27:32.824Z,10.98
2022-09-17T18:29:59.573Z,11.05
2022-09-17T18:32:26.187Z,10.90
2022-09-17T18:34:52.833Z,10.89
2022-09-17T18:37:19.571Z,11.00
2022-09-17T18:39:58.375Z,11.12
2022-09-17T18:42:25.716Z,11.18
2022-09-17T18:44:52.468Z,11.21
2022-09-17T18:47:19.252Z,11.28
2022-09-17T18:49:46.070Z,11.29
2022-09-17T18:52:12.765Z,11.37
2022-09-17T18:54:39.467Z,11.35
2022-09-17T18:57:06.644Z,11.26
2022-09-17T18:59:33.530Z,10.83
2022-09-17T19:02:00.602Z,10.85
2022-09-17T19:04:28.724Z,10.95
2022-09-17T19:06:55.936Z,11.09
2022-09-17T19:09:24.907Z,11.10
2022-09-17T19:11:51.661Z,10.86
2022-09-17T19:14:20.665Z,10.80
2022-09-17T19:16:47.424Z,10.94
2022-09-17T19:19:14.537Z,10.97
2022-09-17T19:21:42.488Z,11.01
2022-09-17T19:24:09.263Z,10.84
2022-09-17T19:26:35.882Z,10.81
2022-09-17T19:29:02.704Z,10.90
2022-09-17T19:31:29.449Z,10.95
2022-09-17T19:33:56.968Z,10.84
2022-09-17T19:36:23.726Z,10.62
2022-09-17T19:38:50.480Z,10.76
2022-09-17T19:41:23.458Z,10.81
2022-09-17T19:43:51.998Z,10.70
2022-09-17T19:46:21.204Z,10.35
2022-09-17T19:48:55.554Z,10.46
2022-09-17T19:51:24.210Z,10.58
2022-09-17T19:53:51.449Z,10.49
2022-09-17T19:56:20.591Z,10.11
2022-09-17T19:58:47.581Z,10.19
2022-09-17T20:01:15.624Z,9.89
2022-09-17T20:03:44.615Z,9.80
2022-09-17T20:06:14.036Z,9.89
2022-09-17T20:08:47.075Z,9.64
2022-09-17T20:11:17.435Z,9.76
2022-09-17T20:13:44.363Z,9.91
2022-09-17T20:16:19.546Z,9.97
2022-09-17T20:18:47.297Z,9.67
2022-09-17T20:21:17.795Z,9.61
2022-09-17T20:23:46.186Z,9.57
2022-09-17T20:26:15.841Z,9.40
2022-09-17T20:28:43.345Z,9.61
2022-09-17T20:31:16.272Z,9.41
2022-09-17T20:33:43.356Z,9.40
2022-09-17T20:36:16.237Z,9.37
2022-09-17T20:41:32.006Z,9.44
2022-09-17T20:44:01.166Z,9.42
2022-09-17T20:46:29.551Z,9.35
2022-09-17T20:48:58.349Z,9.43
2022-09-17T20:51:31.017Z,9.10
2022-09-17T20:53:58.165Z,9.23
2022-09-17T20:56:33.420Z,9.17
2022-09-17T20:59:13.748Z,9.09
2022-09-17T21:01:45.096Z,9.28
2022-09-17T21:04:15.130Z,9.08
2022-09-17T21:06:45.104Z,9.21
2022-09-17T21:09:16.392Z,9.20
2022-09-17T21:11:45.006Z,9.13
2022-09-17T21:14:12.572Z,9.27
2022-09-17T21:16:39.441Z,9.17
2022-09-17T21:19:08.640Z,9.23
2022-09-17T21:21:36.402Z,9.20
2022-09-17T21:24:06.906Z,9.13
2022-09-17T21:26:35.021Z,9.27
2022-09-17T21:29:02.521Z,9.14
2022-09-17T21:31:37.229Z,9.16
2022-09-17T21:34:13.629Z,9.14
2022-09-17T21:36:45.704Z,9.08
2022-09-17T21:39:17.184Z,9.27
2022-09-17T21:41:50.144Z,9.06
2022-09-17T21:44:17.134Z,9.15
2022-09-17T21:46:44.089Z,9.16
2022-09-17T21:49:13.324Z,9.09
2022-09-17T21:51:42.609Z,9.19
2022-09-17T21:54:14.554Z,9.00
2022-09-17T21:56:41.888Z,9.14
2022-09-17T21:59:12.022Z,9.10
2022-09-17T22:01:41.568Z,9.04
2022-09-17T22:04:13.387Z,9.10
2022-09-17T22:06:43.036Z,8.84
2022-09-17T22:09:21.185Z,8.99
2022-09-17T22:11:48.240Z,8.87
2022-09-17T22:14:19.822Z,8.95
2022-09-17T22:16:51.066Z,8.94
2022-09-17T22:19:20.368Z,8.86
2022-09-17T22:21:53.435Z,8.96
2022-09-17T22:24:24.300Z,8.72
2022-09-17T22:26:57.271Z,8.84
2022-09-17T22:29:26.098Z,8.82
2022-09-17T22:31:53.740Z,8.81
2022-09-17T22:34:23.085Z,8.90
2022-09-17T22:36:50.181Z,8.88
2022-09-17T22:39:19.262Z,8.96
2022-09-17T22:41:46.392Z,8.88
2022-09-17T22:44:15.849Z,8.90
2022-09-17T22:46:45.187Z,8.95
2022-09-17T22:49:14.982Z,8.79
2022-09-17T22:51:43.714Z,8.93
2022-09-17T22:54:14.878Z,8.76
2022-09-17T22:56:42.546Z,8.83
2022-09-17T22:59:09.754Z,8.77
2022-09-17T23:01:37.576Z,8.74
2022-09-17T23:04:05.705Z,8.82
2022-09-17T23:06:38.434Z,8.65
2022-09-17T23:09:05.959Z,8.78
2022-09-17T23:11:37.968Z,8.71
2022-09-17T23:14:08.446Z,8.71
2022-09-17T23:16:46.218Z,8.79
2022-09-17T23:19:15.731Z,8.68
2022-09-17T23:21:43.869Z,8.82
2022-09-17T23:24:17.381Z,8.64
2022-09-17T23:26:44.599Z,8.72
2022-09-17T23:29:11.558Z,8.63
2022-09-17T23:31:39.025Z,8.54
2022-09-17T23:34:06.985Z,8.69
2022-09-17T23:36:36.869Z,8.47
2022-09-17T23:39:05.152Z,8.56
2022-09-17T23:41:37.688Z,8.44
2022-09-17T23:44:12.137Z,8.41
2022-09-17T23:46:42.782Z,8.41
2022-09-17T23:49:13.897Z,8.20
2022-09-17T23:51:41.316Z,8.37
2022-09-17T23:54:08.338Z,8.13
2022-09-17T23:56:35.648Z,8.19
2022-09-17T23:59:03.405Z,8.22
